createdAt,value
2023-02-08T00:01:27.502Z,100.00
2023-02-08T00:03:57.362Z,100.00
2023-02-08T00:06:25.655Z,100.00
2023-02-08T00:08:54.230Z,100.00
2023-02-08T00:11:22.669Z,100.00
2023-02-08T00:13:50.944Z,100.00
2023-02-08T00:16:20.598Z,100.00
2023-02-08T00:18:50.578Z,100.00
2023-02-08T00:21:21.236Z,100.00
2023-02-08T00:23:49.789Z,100.00
2023-02-08T00:26:18.381Z,100.00
2023-02-08T00:28:46.955Z,100.00
2023-02-08T00:31:18.408Z,100.00
2023-02-08T00:33:47.263Z,100.00
2023-02-08T00:36:15.673Z,100.00
2023-02-08T00:38:45.371Z,100.00
2023-02-08T00:41:13.905Z,100.00
2023-02-08T00:43:42.256Z,100.00
2023-02-08T00:46:11.953Z,100.00
2023-02-08T00:48:40.235Z,100.00
2023-02-08T00:51:10.421Z,100.00
2023-02-08T00:53:39.721Z,100.00
2023-02-08T00:56:10.852Z,100.00
2023-02-08T00:58:39.701Z,100.00
2023-02-08T01:01:08.545Z,100.00
2023-02-08T01:03:38.341Z,100.00
2023-02-08T01:06:09.311Z,100.00
2023-02-08T01:08:37.744Z,100.00
2023-02-08T01:11:08.017Z,100.00
2023-02-08T01:13:38.430Z,100.00
2023-02-08T01:16:08.009Z,100.00
2023-02-08T01:18:36.410Z,100.00
2023-02-08T01:21:07.067Z,100.00
2023-02-08T01:23:35.514Z,100.00
2023-02-08T01:26:05.273Z,100.00
2023-02-08T01:28:33.947Z,100.00
2023-02-08T01:31:08.264Z,100.00
2023-02-08T01:33:37.632Z,100.00
2023-02-08T01:36:07.671Z,100.00
2023-02-08T01:38:36.234Z,100.00
2023-02-08T01:41:05.924Z,100.00
2023-02-08T01:43:36.143Z,100.00
2023-02-08T01:46:06.154Z,100.00
2023-02-08T01:48:38.633Z,100.00
2023-02-08T01:51:09.317Z,100.00
2023-02-08T01:53:38.599Z,100.00
2023-02-08T01:56:10.511Z,100.00
2023-02-08T01:58:42.589Z,100.00
2023-02-08T02:01:13.232Z,100.00
2023-02-08T02:03:41.722Z,100.00
2023-02-08T02:06:13.235Z,100.00
2023-02-08T02:08:44.641Z,100.00
2023-02-08T02:11:13.605Z,100.00
2023-02-08T02:13:42.182Z,100.00
2023-02-08T02:16:10.541Z,100.00
2023-02-08T02:18:40.402Z,100.00
2023-02-08T02:21:26.729Z,100.00
2023-02-08T02:24:26.187Z,100.00
2023-02-08T02:27:19.481Z,100.00
2023-02-08T02:30:42.358Z,100.00
2023-02-08T02:33:21.201Z,100.00
2023-02-08T02:35:56.015Z,100.00
2023-02-08T02:38:31.458Z,100.00
2023-02-08T02:41:06.910Z,100.00
2023-02-08T02:43:43.335Z,100.00
2023-02-08T02:46:20.980Z,100.00
2023-02-08T02:48:54.544Z,100.00
2023-02-08T02:51:28.314Z,100.00
2023-02-08T02:53:59.996Z,100.00
2023-02-08T02:56:30.872Z,100.00
2023-02-08T02:59:03.089Z,100.00
2023-02-08T03:01:31.467Z,100.00
2023-02-08T03:04:01.270Z,100.00
2023-02-08T03:06:39.521Z,100.00
2023-02-08T03:09:25.600Z,100.00
2023-02-08T03:11:58.894Z,100.00
2023-02-08T03:14:35.227Z,100.00
2023-02-08T03:17:29.344Z,100.00
2023-02-08T03:20:06.328Z,100.00
2023-02-08T03:22:41.877Z,100.00
2023-02-08T03:25:13.157Z,100.00
2023-02-08T03:27:48.524Z,100.00
2023-02-08T03:30:20.447Z,100.00
2023-02-08T03:32:52.936Z,100.00
2023-02-08T03:35:24.528Z,100.00
2023-02-08T03:37:56.438Z,100.00
2023-02-08T03:40:28.466Z,100.00
2023-02-08T03:43:00.127Z,100.00
2023-02-08T03:45:31.473Z,100.00
2023-02-08T03:48:01.978Z,100.00
2023-02-08T03:50:35.530Z,100.00
2023-02-08T03:53:03.868Z,100.00
2023-02-08T03:55:35.108Z,100.00
2023-02-08T03:58:07.626Z,100.00
2023-02-08T04:00:40.562Z,100.00
2023-02-08T04:03:13.597Z,100.00
2023-02-08T04:05:43.479Z,100.00
2023-02-08T04:08:11.834Z,100.00
2023-02-08T04:10:40.462Z,100.00
2023-02-08T04:13:09.038Z,100.00
2023-02-08T04:15:37.387Z,100.00
2023-02-08T04:18:05.964Z,100.00
2023-02-08T04:20:34.330Z,100.00
2023-02-08T04:23:04.111Z,100.00
2023-02-08T04:25:33.557Z,100.00
2023-02-08T04:28:01.944Z,100.00
2023-02-08T04:30:30.434Z,100.00
2023-02-08T04:33:00.191Z,100.00
2023-02-08T04:35:28.580Z,100.00
2023-02-08T04:37:56.860Z,100.00
2023-02-08T04:40:26.724Z,100.00
2023-02-08T04:42:55.063Z,100.00
2023-02-08T04:45:23.897Z,100.00
2023-02-08T04:47:52.204Z,100.00
2023-02-08T04:50:20.764Z,100.00
2023-02-08T04:52:49.556Z,100.00
2023-02-08T04:55:18.098Z,100.00
2023-02-08T04:57:47.812Z,100.00
2023-02-08T05:00:17.453Z,100.00
2023-02-08T05:02:46.003Z,100.00
2023-02-08T05:05:14.374Z,100.00
2023-02-08T05:07:42.736Z,100.00
2023-02-08T05:10:11.343Z,100.00
2023-02-08T05:12:39.623Z,100.00
2023-02-08T05:15:10.318Z,100.00
2023-02-08T05:17:39.540Z,100.00
2023-02-08T05:20:08.282Z,100.00
2023-02-08T05:22:36.568Z,100.00
2023-02-08T05:25:05.117Z,100.00
2023-02-08T05:27:33.408Z,100.00
2023-02-08T05:30:02.327Z,100.00
2023-02-08T05:32:32.092Z,100.00
2023-02-08T05:35:00.320Z,100.00
2023-02-08T05:37:28.656Z,100.00
2023-02-08T05:39:56.927Z,100.00
2023-02-08T05:42:25.199Z,100.00
2023-02-08T05:44:53.467Z,100.00
2023-02-08T05:47:22.144Z,100.00
2023-02-08T05:49:51.771Z,100.00
2023-02-08T05:52:20.049Z,100.00
2023-02-08T05:54:48.408Z,100.00
2023-02-08T05:57:16.674Z,100.00
2023-02-08T05:59:45.022Z,100.00
2023-02-08T06:02:13.297Z,100.00
2023-02-08T06:04:41.525Z,100.00
2023-02-08T06:07:11.449Z,100.00
2023-02-08T06:09:39.689Z,100.00
2023-02-08T06:12:08.464Z,100.00
2023-02-08T06:14:36.758Z,100.00
2023-02-08T06:17:05.158Z,100.00
2023-02-08T06:19:33.745Z,100.00
2023-02-08T06:22:02.050Z,100.00
2023-02-08T06:24:31.939Z,100.00
2023-02-08T06:27:00.342Z,100.00
2023-02-08T06:29:28.909Z,100.00
2023-02-08T06:31:57.414Z,100.00
2023-02-08T06:34:26.652Z,100.00
2023-02-08T10:19:55.250Z,95.62
2023-02-08T10:47:54.938Z,92.95
2023-02-08T10:50:29.918Z,83.62
2023-02-08T10:52:58.644Z,85.65
2023-02-08T10:55:27.171Z,87.16
2023-02-08T10:57:58.967Z,88.72
2023-02-08T11:00:29.563Z,82.94
2023-02-08T11:03:01.926Z,82.51
2023-02-08T11:05:40.769Z,82.21
2023-02-08T11:08:10.878Z,85.70
2023-02-08T11:10:39.632Z,81.39
2023-02-08T11:13:17.173Z,81.60
2023-02-08T11:15:47.780Z,80.60
2023-02-08T11:18:32.145Z,79.64
2023-02-08T11:21:02.139Z,81.57
2023-02-08T11:23:32.203Z,82.23
2023-02-08T11:26:18.896Z,80.49
2023-02-08T11:29:00.527Z,77.78
2023-02-08T11:31:29.113Z,77.28
2023-02-08T11:34:06.530Z,76.77
2023-02-08T11:36:36.864Z,78.68
2023-02-08T11:39:17.149Z,75.98
2023-02-08T11:41:45.848Z,78.38
2023-02-08T11:44:21.498Z,79.23
2023-02-08T11:46:50.194Z,78.54
2023-02-08T11:49:25.029Z,76.79
2023-02-08T11:51:53.538Z,77.04
2023-02-08T11:54:36.754Z,77.01
2023-02-08T11:57:11.940Z,76.72
2023-02-08T11:59:40.239Z,76.00
2023-02-08T12:02:37.120Z,74.50
2023-02-08T12:05:13.220Z,74.00
2023-02-08T12:07:52.895Z,71.69
2023-02-08T12:10:32.106Z,71.33
2023-02-08T12:13:08.390Z,69.92
2023-02-08T12:15:57.419Z,69.00
2023-02-08T12:18:40.844Z,70.35
2023-02-08T12:21:13.869Z,71.99
2023-02-08T12:23:54.134Z,75.00
2023-02-08T12:26:32.896Z,74.97
2023-02-08T12:29:15.006Z,73.11
2023-02-08T12:31:57.100Z,73.11
2023-02-08T12:34:40.095Z,70.45
2023-02-08T12:37:35.552Z,68.79
2023-02-08T12:40:33.155Z,70.49
2023-02-08T12:43:13.945Z,70.64
2023-02-08T12:45:54.146Z,71.52
2023-02-08T12:48:28.972Z,71.40
2023-02-08T12:51:04.886Z,69.68
2023-02-08T12:53:36.619Z,69.44
2023-02-08T12:56:08.986Z,69.59
2023-02-08T12:58:41.846Z,70.12
2023-02-08T13:01:15.336Z,65.07
2023-02-08T13:03:46.703Z,65.77
2023-02-08T13:06:17.993Z,66.56
2023-02-08T13:08:53.741Z,67.61
2023-02-08T13:11:26.750Z,67.83
2023-02-08T13:13:59.155Z,67.74
2023-02-08T13:16:30.597Z,68.92
2023-02-08T13:19:15.064Z,68.97
2023-02-08T13:21:44.121Z,69.07
2023-02-08T13:24:20.505Z,70.37
2023-02-08T13:26:48.881Z,69.08
2023-02-08T13:29:19.707Z,68.22
2023-02-08T13:31:50.703Z,64.21
2023-02-08T13:34:26.445Z,64.84
2023-02-08T13:36:59.615Z,64.34
2023-02-08T13:39:36.434Z,62.06
2023-02-08T13:42:08.375Z,63.50
2023-02-08T13:44:38.500Z,65.00
2023-02-08T13:47:07.855Z,64.35
2023-02-08T13:49:54.839Z,64.32
2023-02-08T13:52:56.316Z,61.92
2023-02-08T13:56:05.862Z,61.56
2023-02-08T13:59:05.770Z,63.04
2023-02-08T14:01:36.270Z,66.79
2023-02-08T14:04:29.990Z,65.94
2023-02-08T14:07:02.669Z,65.71
2023-02-08T14:09:40.955Z,64.54
2023-02-08T14:12:16.800Z,61.90
2023-02-08T14:14:45.142Z,60.62
2023-02-08T14:17:20.589Z,60.85
2023-02-08T14:19:58.410Z,60.95
2023-02-08T14:22:29.216Z,61.80
2023-02-08T14:25:03.603Z,61.70
2023-02-08T14:27:36.880Z,61.09
2023-02-08T14:30:09.015Z,60.75
2023-02-08T14:32:39.108Z,60.78
2023-02-08T14:35:09.897Z,61.09
2023-02-08T14:37:38.289Z,61.22
2023-02-08T14:40:44.293Z,61.45
2023-02-08T14:43:32.669Z,60.85
2023-02-08T14:46:34.297Z,63.09
2023-02-08T14:49:02.633Z,63.85
2023-02-08T14:51:35.336Z,64.50
2023-02-08T14:54:07.519Z,64.98
2023-02-08T14:56:37.716Z,65.48
2023-02-08T14:59:10.250Z,66.10
2023-02-08T15:01:44.322Z,66.20
2023-02-08T16:25:39.068Z,100.00
2023-02-08T16:28:08.292Z,100.00
2023-02-08T16:30:36.878Z,100.00
2023-02-08T16:33:09.761Z,100.00
2023-02-08T16:35:39.508Z,100.00
2023-02-08T16:38:10.270Z,100.00
2023-02-08T16:43:38.124Z,100.00
2023-02-08T16:46:22.750Z,100.00
2023-02-08T16:48:52.817Z,100.00
2023-02-08T16:51:23.801Z,100.00
2023-02-08T16:53:55.027Z,100.00
2023-02-08T16:56:24.221Z,100.00
2023-02-08T16:58:54.413Z,100.00
2023-02-08T17:01:24.929Z,100.00
2023-02-08T17:03:54.047Z,100.00
2023-02-08T17:06:29.974Z,100.00
2023-02-08T17:08:59.519Z,100.00
2023-02-08T17:11:28.817Z,100.00
2023-02-08T17:13:59.650Z,100.00
2023-02-08T17:16:30.338Z,100.00
2023-02-08T17:19:00.879Z,100.00
2023-02-08T17:21:30.428Z,100.00
2023-02-08T17:24:00.436Z,100.00
2023-02-08T17:26:31.564Z,100.00
2023-02-08T17:29:04.523Z,100.00
2023-02-08T17:31:33.660Z,100.00
2023-02-08T17:34:05.452Z,100.00
2023-02-08T17:36:36.155Z,100.00
2023-02-08T17:39:05.823Z,100.00
2023-02-08T17:41:34.576Z,100.00
2023-02-08T17:44:06.232Z,100.00
2023-02-08T17:46:35.398Z,100.00
2023-02-08T17:49:08.274Z,100.00
2023-02-08T17:51:37.783Z,100.00
2023-02-08T17:54:10.501Z,100.00
2023-02-08T17:56:39.854Z,100.00
2023-02-08T17:59:11.047Z,100.00
2023-02-08T18:01:40.727Z,100.00
2023-02-08T18:04:11.866Z,100.00
2023-02-08T18:06:42.171Z,100.00
2023-02-08T18:09:11.560Z,100.00
2023-02-08T18:11:41.883Z,100.00
2023-02-08T18:14:12.369Z,100.00
2023-02-08T18:16:41.762Z,100.00
2023-02-08T18:19:11.669Z,100.00
2023-02-08T18:21:40.640Z,100.00
2023-02-08T18:24:10.586Z,100.00
2023-02-08T18:26:40.438Z,100.00
2023-02-08T18:29:11.279Z,100.00
2023-02-08T18:31:42.593Z,100.00
2023-02-08T18:34:12.283Z,100.00
2023-02-08T18:36:44.763Z,100.00
2023-02-08T18:39:16.014Z,100.00
2023-02-08T18:41:46.559Z,100.00
2023-02-08T18:44:18.163Z,100.00
2023-02-08T18:46:50.531Z,100.00
2023-02-08T18:49:20.298Z,100.00
2023-02-08T18:51:53.213Z,100.00
2023-02-08T18:54:23.426Z,100.00
2023-02-08T18:56:56.387Z,100.00
2023-02-08T18:59:25.856Z,100.00
2023-02-08T19:01:59.258Z,100.00
2023-02-08T19:04:29.273Z,100.00
2023-02-08T19:07:00.099Z,100.00
2023-02-08T19:09:31.163Z,100.00
2023-02-08T19:12:00.816Z,100.00
2023-02-08T19:14:33.417Z,100.00
2023-02-08T19:17:07.589Z,100.00
2023-02-08T19:19:39.856Z,100.00
2023-02-08T19:22:09.666Z,100.00
2023-02-08T19:24:41.537Z,100.00
2023-02-08T19:27:11.523Z,100.00
2023-02-08T19:29:43.091Z,100.00
2023-02-08T19:32:15.977Z,100.00
2023-02-08T19:34:46.362Z,100.00
2023-02-08T19:37:16.743Z,100.00
2023-02-08T19:39:53.460Z,100.00
2023-02-08T19:42:25.927Z,100.00
2023-02-08T19:44:55.019Z,100.00
2023-02-08T19:47:50.005Z,100.00
2023-02-08T19:50:20.628Z,100.00
2023-02-08T19:52:50.878Z,100.00
2023-02-08T19:55:23.561Z,100.00
2023-02-08T19:58:00.124Z,100.00
2023-02-08T20:00:29.399Z,100.00
2023-02-08T20:03:05.647Z,100.00
2023-02-08T20:05:40.791Z,100.00
2023-02-08T20:08:11.116Z,100.00
2023-02-08T20:10:41.095Z,100.00
2023-02-08T20:13:10.508Z,100.00
2023-02-08T20:15:41.789Z,100.00
2023-02-08T20:18:14.123Z,100.00
2023-02-08T20:20:44.560Z,100.00
2023-02-08T20:23:22.833Z,100.00
2023-02-08T20:25:55.639Z,100.00
2023-02-08T20:28:26.077Z,100.00
2023-02-08T20:30:57.662Z,100.00
2023-02-08T20:33:30.851Z,100.00
2023-02-08T20:36:01.371Z,100.00
2023-02-08T20:38:31.905Z,100.00
2023-02-08T20:41:05.019Z,100.00
2023-02-08T20:43:37.615Z,100.00
2023-02-08T20:46:10.083Z,100.00
2023-02-08T20:48:41.099Z,100.00
2023-02-08T20:51:12.585Z,100.00
2023-02-08T20:53:44.256Z,100.00
2023-02-08T20:56:17.448Z,100.00
2023-02-08T20:58:48.754Z,100.00
2023-02-08T21:01:22.294Z,100.00
2023-02-08T21:03:54.825Z,100.00
2023-02-08T21:06:30.115Z,100.00
2023-02-08T21:09:02.420Z,100.00
2023-02-08T21:11:32.966Z,100.00
2023-02-08T21:14:02.279Z,100.00
2023-02-08T21:16:31.159Z,100.00
2023-02-08T21:19:01.899Z,100.00
2023-02-08T21:21:31.962Z,100.00
2023-02-08T21:24:01.141Z,100.00
2023-02-08T21:26:30.296Z,100.00
2023-02-08T21:29:00.588Z,100.00
2023-02-08T21:31:29.689Z,100.00
2023-02-08T21:33:58.367Z,100.00
2023-02-08T21:36:29.594Z,100.00
2023-02-08T21:38:58.824Z,100.00
2023-02-08T21:41:29.097Z,100.00
2023-02-08T21:43:59.762Z,100.00
2023-02-08T21:46:28.829Z,100.00
2023-02-08T21:49:16.471Z,100.00
2023-02-08T21:52:03.442Z,100.00
2023-02-08T21:54:43.018Z,100.00
2023-02-08T21:57:14.596Z,100.00
2023-02-08T21:59:43.162Z,100.00
2023-02-08T22:02:14.648Z,100.00
2023-02-08T22:04:46.842Z,100.00
2023-02-08T22:07:17.608Z,100.00
2023-02-08T22:09:45.912Z,100.00
2023-02-08T22:12:17.752Z,100.00
2023-02-08T22:14:46.172Z,100.00
2023-02-08T22:17:15.743Z,100.00
2023-02-08T22:19:44.526Z,100.00
2023-02-08T22:22:13.426Z,100.00
2023-02-08T22:24:43.184Z,100.00
2023-02-08T22:27:12.019Z,100.00
2023-02-08T22:29:40.327Z,100.00
2023-02-08T22:32:10.057Z,100.00
2023-02-08T22:34:39.112Z,100.00
2023-02-08T22:37:07.398Z,100.00
2023-02-08T22:39:35.903Z,100.00
2023-02-08T22:42:08.690Z,100.00
2023-02-08T22:44:37.368Z,100.00
2023-02-08T22:47:07.511Z,100.00
2023-02-08T22:49:36.062Z,100.00
2023-02-08T22:52:05.561Z,100.00
2023-02-08T22:54:34.052Z,100.00
2023-02-08T22:57:02.297Z,100.00
2023-02-08T22:59:32.015Z,100.00
2023-02-08T23:02:01.740Z,100.00
2023-02-08T23:04:30.614Z,100.00
2023-02-08T23:06:59.630Z,100.00
2023-02-08T23:09:27.953Z,100.00
2023-02-08T23:11:56.415Z,100.00
2023-02-08T23:14:24.745Z,100.00
2023-02-08T23:16:54.405Z,100.00
2023-02-08T23:19:22.752Z,100.00
2023-02-08T23:21:51.273Z,100.00
2023-02-08T23:24:19.529Z,100.00
2023-02-08T23:26:47.827Z,100.00
2023-02-08T23:29:16.067Z,100.00
2023-02-08T23:31:45.082Z,100.00
2023-02-08T23:34:15.028Z,100.00
2023-02-08T23:36:43.460Z,100.00
2023-02-08T23:39:11.719Z,100.00
2023-02-08T23:41:39.985Z,100.00
2023-02-08T23:44:08.296Z,100.00
2023-02-08T23:46:36.568Z,100.00
2023-02-08T23:49:05.175Z,100.00
2023-02-08T23:51:34.838Z,100.00
2023-02-08T23:54:03.125Z,100.00
2023-02-08T23:56:33.081Z,100.00
2023-02-08T23:59:01.638Z,100.00
